メインページ
METAR-TAF:

METAR-TAF

空港 :

マウント・プレザント空軍基地

スタンリー, フォークランド諸島

緯度: 51-49S, 経度: 058-27W, 海抜: 74m

現時点の気象観測

当レポートは55分前の04:50(UTC)に作成
西/南西の風 9kt
気温 9°C
湿度 87%
気圧 1012 hPa
視程10km以上
高度1100ftの雲はほとんどない
高度4000ftの千切れ雲あり

METAR: EGYP 210450Z 25009KT 9999 FEW011 BKN040 09/07 Q1012 BLU

時間: 02:45 (05:45 UTC)

予報

当レポートは1時間13分前の04:32(UTC)に作成
予報は21日の 06時(UTC)から 21日の 24時(UTC)まで有効
西/南西の風 15kt
視程10km以上
高度1500ftの雲はほとんどない
高度3500ftの千切れ雲あり
21日の 06時(UTC)から 21日の 10時(UTC)まで一時的に
視程: 7000m
高度800ftの千切れ雲あり
小雨, 霧雨
21日の 10時(UTC)から 21日の 13時(UTC)まで徐々に
西/北西の風 12kt
確率 30% :
21日の 10時(UTC)から 21日の 13時(UTC)まで一時的に
高度1200ftの雲は散在している
確率 30% :
21日の 13時(UTC)から 21日の 17時(UTC)まで一時的に
高度2000ftの雲は散在している
確率 40% :
21日の 16時(UTC)から 21日の 21時(UTC)まで一時的に
西/北西の風 15kt、最大25ktの突風を伴う

TAF: EGYP 210432Z 2106/2124 25015KT 9999 FEW015 BKN035 TEMPO 2106/2110 7000 -RADZ BKN008 BECMG 2110/2113 29012KT PROB30 TEMPO 2110/2113 SCT012 PROB30 TEMPO 2113/2117 SCT020 PROB40 TEMPO 2116/2121 29015G25KT

4,000以上の空港の気象観測と天気予報(METAR報とTAF報)

利用可能な観測所は地図上に黄色い丸と赤い丸で示す。

丸の上にカーソルを重ねると観測所名を参照できる。

次にクリックすると気象観測と天気予報を参照できる。

マップの切り替え:黒色「×」印の緑ボタンをクリックして拡大、「-」印の緑ボタンをクリックして縮小、緑色の三角印をクリックして隣りの地図に切り替え


METAR-TAF: